createdAt,value
2022-11-12T00:01:33.940Z,14.39
2022-11-12T00:04:21.222Z,14.40
2022-11-12T00:07:08.099Z,14.39
2022-11-12T00:09:56.275Z,14.38
2022-11-12T00:12:43.443Z,14.39
2022-11-12T00:15:30.718Z,14.38
2022-11-12T00:18:17.743Z,14.37
2022-11-12T00:21:04.841Z,14.38
2022-11-12T00:23:52.114Z,14.36
2022-11-12T00:26:40.612Z,14.37
2022-11-12T00:29:27.685Z,14.38
2022-11-12T00:32:15.187Z,14.38
2022-11-12T00:35:02.855Z,14.38
2022-11-12T00:37:54.840Z,14.38
2022-11-12T00:40:42.205Z,14.37
2022-11-12T00:43:30.689Z,14.37
2022-11-12T00:46:17.475Z,14.37
2022-11-12T00:49:04.753Z,14.35
2022-11-12T00:51:51.963Z,14.36
2022-11-12T00:54:39.006Z,14.36
2022-11-12T00:57:26.360Z,14.37
2022-11-12T01:00:18.652Z,14.35
2022-11-12T01:03:05.558Z,14.35
2022-11-12T01:05:52.657Z,14.35
2022-11-12T01:08:40.010Z,14.37
2022-11-12T01:11:28.299Z,14.35
2022-11-12T01:14:15.560Z,14.34
2022-11-12T01:17:03.727Z,14.36
2022-11-12T01:19:51.227Z,14.32
2022-11-12T01:22:37.937Z,14.36
2022-11-12T01:25:25.219Z,14.34
2022-11-12T01:28:12.310Z,14.35
2022-11-12T01:30:59.399Z,14.33
2022-11-12T01:33:49.892Z,14.33
2022-11-12T01:36:38.654Z,14.33
2022-11-12T01:39:25.703Z,14.33
2022-11-12T01:42:13.086Z,14.32
2022-11-12T01:44:59.892Z,14.33
2022-11-12T01:47:48.281Z,14.31
2022-11-12T01:50:38.087Z,14.31
2022-11-12T01:53:27.716Z,14.31
2022-11-12T01:56:15.070Z,14.31
2022-11-12T01:59:04.316Z,14.31
2022-11-12T02:01:51.144Z,14.32
2022-11-12T02:04:38.530Z,14.30
2022-11-12T02:07:27.006Z,14.31
2022-11-12T02:10:14.549Z,14.32
2022-11-12T02:13:19.613Z,14.30
2022-11-12T02:16:08.271Z,14.28
2022-11-12T02:18:55.561Z,14.30
2022-11-12T02:21:43.983Z,14.30
2022-11-12T02:24:36.872Z,14.28
2022-11-12T02:27:24.292Z,14.30
2022-11-12T02:30:12.026Z,14.30
2022-11-12T02:34:22.545Z,14.30
2022-11-12T02:37:10.870Z,14.28
2022-11-12T02:39:57.842Z,14.29
2022-11-12T02:42:44.715Z,14.29
2022-11-12T02:45:32.141Z,14.26
2022-11-12T02:48:19.515Z,14.27
2022-11-12T02:51:06.793Z,14.27
2022-11-12T02:53:54.999Z,14.28
2022-11-12T02:56:42.170Z,14.28
2022-11-12T02:59:29.394Z,14.28
2022-11-12T03:02:16.619Z,14.27
2022-11-12T03:05:04.154Z,14.25
2022-11-12T03:07:51.308Z,14.27
2022-11-12T03:10:40.882Z,14.26
2022-11-12T03:13:28.339Z,14.26
2022-11-12T03:16:16.090Z,14.25
2022-11-12T03:19:04.690Z,14.25
2022-11-12T03:21:52.848Z,14.26
2022-11-12T03:24:39.840Z,14.24
2022-11-12T03:27:28.676Z,14.25
2022-11-12T03:30:15.738Z,14.25
2022-11-12T03:33:06.384Z,14.24
2022-11-12T03:35:53.439Z,14.25
2022-11-12T03:38:40.712Z,14.24
2022-11-12T03:41:27.890Z,14.24
2022-11-12T03:44:16.335Z,14.23
2022-11-12T03:47:03.567Z,14.23
2022-11-12T03:49:50.904Z,14.21
2022-11-12T03:52:38.597Z,14.22
2022-11-12T03:55:27.344Z,14.22
2022-11-12T03:58:16.021Z,14.21
2022-11-12T04:01:05.230Z,14.21
2022-11-12T04:03:52.531Z,14.22
2022-11-12T04:06:57.498Z,14.21
2022-11-12T04:09:44.667Z,14.20
2022-11-12T04:12:49.414Z,14.21
2022-11-12T04:15:36.779Z,14.20
2022-11-12T04:18:42.754Z,14.19
2022-11-12T04:21:50.081Z,14.20
2022-11-12T04:24:56.548Z,14.18
2022-11-12T04:27:43.530Z,14.19
2022-11-12T04:30:29.819Z,14.18
2022-11-12T04:33:17.078Z,14.19
2022-11-12T04:36:05.895Z,14.19
2022-11-12T04:38:53.030Z,14.18
2022-11-12T04:42:00.662Z,14.18
2022-11-12T04:45:05.038Z,14.16
2022-11-12T04:47:52.334Z,14.18
2022-11-12T04:50:39.511Z,14.15
2022-11-12T04:53:28.485Z,14.16
2022-11-12T04:56:17.423Z,14.18
2022-11-12T04:59:04.648Z,14.17
2022-11-12T05:01:52.600Z,14.15
2022-11-12T05:04:39.695Z,14.15
2022-11-12T05:07:26.819Z,14.14
2022-11-12T05:10:14.999Z,14.14
2022-11-12T05:13:02.218Z,14.14
2022-11-12T05:15:49.623Z,14.14
2022-11-12T05:18:36.907Z,14.12
2022-11-12T05:21:45.139Z,14.12
2022-11-12T05:24:41.991Z,14.12
2022-11-12T05:27:31.266Z,14.12
2022-11-12T05:30:18.482Z,14.11
2022-11-12T05:33:05.759Z,14.11
2022-11-12T05:35:53.126Z,14.08
2022-11-12T05:38:40.377Z,14.11
2022-11-12T05:41:32.857Z,14.11
2022-11-12T05:44:34.042Z,14.09
2022-11-12T05:47:20.969Z,14.07
2022-11-12T05:50:09.646Z,14.09
2022-11-12T05:52:56.529Z,14.09
2022-11-12T05:55:43.788Z,14.08
2022-11-12T05:58:33.878Z,14.08
2022-11-12T06:01:22.545Z,14.06
2022-11-12T06:04:09.751Z,14.07
2022-11-12T06:06:56.683Z,14.06
2022-11-12T06:09:43.733Z,14.07
2022-11-12T06:12:31.244Z,14.05
2022-11-12T06:15:18.034Z,14.05
2022-11-12T06:18:06.810Z,14.04
2022-11-12T06:21:07.608Z,14.04
2022-11-12T06:23:56.545Z,14.01
2022-11-12T06:26:43.372Z,14.03
2022-11-12T06:29:30.684Z,14.02
2022-11-12T06:32:17.857Z,14.02
2022-11-12T06:35:07.237Z,14.02
2022-11-12T06:37:55.262Z,14.02
2022-11-12T06:40:43.325Z,14.02
2022-11-12T06:43:32.080Z,14.00
2022-11-12T06:46:19.137Z,14.04
2022-11-12T06:49:06.560Z,14.02
2022-11-12T06:51:55.035Z,14.03
2022-11-12T06:54:42.244Z,14.01
2022-11-12T06:57:29.128Z,14.01
2022-11-12T07:00:17.431Z,14.01
2022-11-12T07:03:07.747Z,14.01
2022-11-12T07:05:55.121Z,14.01
2022-11-12T07:08:43.660Z,14.00
2022-11-12T07:11:30.471Z,14.00
2022-11-12T07:14:17.727Z,14.01
2022-11-12T07:17:04.697Z,14.02
2022-11-12T07:19:51.722Z,14.03
2022-11-12T07:22:38.639Z,14.03
2022-11-12T07:25:27.287Z,14.03
2022-11-12T07:28:14.562Z,14.03
2022-11-12T07:31:02.527Z,14.04
2022-11-12T07:33:49.844Z,14.03
2022-11-12T07:36:36.831Z,14.02
2022-11-12T07:39:23.825Z,14.03
2022-11-12T07:42:12.576Z,14.04
2022-11-12T07:44:59.836Z,14.03
2022-11-12T07:47:46.943Z,14.01
2022-11-12T07:50:33.981Z,14.03
2022-11-12T07:53:21.181Z,14.03
2022-11-12T07:56:08.383Z,14.03
2022-11-12T07:58:56.883Z,14.05
2022-11-12T08:01:46.492Z,14.02
2022-11-12T08:04:33.964Z,14.02
2022-11-12T08:07:21.376Z,14.03
2022-11-12T08:10:09.915Z,14.02
2022-11-12T08:12:57.291Z,14.00
2022-11-12T08:15:51.969Z,14.01
2022-11-12T08:18:39.447Z,14.01
2022-11-12T08:21:26.832Z,14.02
2022-11-12T08:24:13.684Z,14.00
2022-11-12T08:27:00.557Z,14.01
2022-11-12T08:29:47.854Z,14.02
2022-11-12T08:32:36.675Z,14.00
2022-11-12T08:35:23.971Z,14.03
2022-11-12T08:38:13.492Z,14.03
2022-11-12T08:41:01.721Z,14.03
2022-11-12T08:43:49.150Z,14.02
2022-11-12T08:46:36.258Z,14.04
2022-11-12T08:49:24.596Z,14.02
2022-11-12T08:52:11.791Z,14.04
2022-11-12T08:54:59.148Z,14.05
2022-11-12T08:57:46.420Z,14.04
2022-11-12T09:00:35.802Z,14.05
2022-11-12T09:03:24.545Z,14.06
2022-11-12T09:06:13.391Z,14.05
2022-11-12T09:09:01.002Z,14.03
2022-11-12T09:11:48.218Z,14.07
2022-11-12T09:14:35.587Z,14.07
2022-11-12T09:17:23.112Z,14.07
2022-11-12T09:20:10.614Z,14.07
2022-11-12T09:23:01.332Z,14.07
2022-11-12T09:25:48.284Z,14.08
2022-11-12T09:28:35.449Z,14.06
2022-11-12T09:31:22.464Z,14.08
2022-11-12T09:34:09.943Z,14.07
2022-11-12T09:36:57.588Z,14.09
2022-11-12T09:39:45.977Z,14.08
2022-11-12T09:42:35.375Z,14.10
2022-11-12T09:45:25.936Z,14.10
2022-11-12T09:48:13.738Z,14.10
2022-11-12T09:51:04.016Z,14.10
2022-11-12T09:53:56.040Z,14.09
2022-11-12T09:56:44.246Z,14.09
2022-11-12T09:59:33.656Z,14.08
2022-11-12T10:02:27.505Z,14.09
2022-11-12T10:05:23.101Z,14.10
2022-11-12T10:08:25.888Z,14.11
2022-11-12T10:12:03.869Z,14.12
2022-11-12T10:15:36.207Z,14.10
2022-11-12T10:18:31.101Z,14.11
2022-11-12T10:21:24.857Z,14.12
2022-11-12T10:24:12.949Z,14.11
2022-11-12T10:27:00.582Z,14.11
2022-11-12T10:29:50.889Z,14.12
2022-11-12T10:32:43.908Z,14.13
2022-11-12T10:35:31.569Z,14.14
2022-11-12T10:38:23.714Z,14.13
2022-11-12T10:41:21.305Z,14.13
2022-11-12T10:44:15.929Z,14.13
2022-11-12T10:47:27.753Z,14.14
2022-11-12T10:50:22.973Z,14.13
2022-11-12T10:53:13.404Z,14.15
2022-11-12T10:56:02.027Z,14.15
2022-11-12T10:59:10.588Z,14.17
2022-11-12T11:01:59.496Z,14.15
2022-11-12T11:04:46.663Z,14.17
2022-11-12T11:07:35.892Z,14.14
2022-11-12T11:10:27.034Z,14.18
2022-11-12T11:13:22.203Z,14.18
2022-11-12T11:16:13.154Z,14.17
2022-11-12T11:19:04.089Z,14.18
2022-11-12T11:22:14.066Z,14.18
2022-11-12T11:25:16.530Z,14.19
2022-11-12T11:28:13.463Z,14.18
2022-11-12T11:31:05.653Z,14.19
2022-11-12T11:33:59.911Z,14.18
2022-11-12T11:36:56.095Z,14.18
2022-11-12T11:39:48.514Z,14.18
2022-11-12T11:42:52.483Z,14.19
2022-11-12T11:45:52.542Z,14.18
2022-11-12T11:48:48.913Z,14.15
2022-11-12T11:51:41.382Z,14.18
2022-11-12T11:54:39.227Z,14.17
2022-11-12T11:57:30.127Z,14.19
2022-11-12T12:00:21.228Z,14.18
2022-11-12T12:03:22.814Z,14.20
2022-11-12T12:06:20.275Z,14.20
2022-11-12T12:09:24.708Z,14.14
2022-11-12T12:12:21.625Z,14.21
2022-11-12T12:15:27.176Z,14.22
2022-11-12T12:18:24.889Z,14.22
2022-11-12T12:21:15.834Z,14.23
2022-11-12T12:24:05.516Z,14.22
2022-11-12T12:26:56.143Z,14.22
2022-11-12T12:29:47.611Z,14.22
2022-11-12T12:32:38.469Z,14.22
2022-11-12T12:35:28.821Z,14.22
2022-11-12T12:38:22.905Z,14.22
2022-11-12T12:41:16.201Z,14.23
2022-11-12T12:44:05.708Z,14.19
2022-11-12T12:46:56.287Z,14.23
2022-11-12T12:49:46.367Z,14.23
2022-11-12T12:53:01.222Z,14.24
2022-11-12T12:55:49.706Z,14.23
2022-11-12T12:58:43.735Z,14.24
2022-11-12T13:01:33.878Z,14.26
2022-11-12T13:04:53.291Z,14.26
2022-11-12T13:07:43.113Z,14.25
2022-11-12T13:10:52.077Z,14.26
2022-11-12T13:13:39.861Z,14.25
2022-11-12T13:16:57.894Z,14.24
2022-11-12T13:19:48.617Z,14.24
2022-11-12T13:22:50.026Z,14.24
2022-11-12T13:25:37.616Z,14.24
2022-11-12T13:28:25.056Z,14.24
2022-11-12T13:31:28.632Z,14.25
2022-11-12T13:34:25.244Z,14.25
2022-11-12T13:37:19.815Z,14.24
2022-11-12T13:40:13.139Z,14.22
2022-11-12T13:43:06.455Z,14.23
2022-11-12T13:45:56.436Z,14.24
2022-11-12T13:48:45.134Z,14.24
2022-11-12T13:51:39.564Z,14.24
2022-11-12T13:54:37.016Z,14.23
2022-11-12T13:57:30.322Z,14.23
2022-11-12T14:00:23.978Z,14.16
2022-11-12T14:03:17.841Z,14.22
2022-11-12T14:06:13.861Z,14.23
2022-11-12T14:09:13.835Z,14.20
2022-11-12T14:12:10.249Z,14.21
2022-11-12T14:15:09.852Z,14.23
2022-11-12T14:18:02.925Z,14.24
2022-11-12T14:20:50.773Z,14.24
2022-11-12T14:23:39.155Z,14.23
2022-11-12T14:26:37.916Z,14.22
2022-11-12T14:29:27.681Z,14.23
2022-11-12T14:32:19.758Z,14.22
2022-11-12T14:35:30.733Z,14.23
2022-11-12T14:38:20.378Z,14.22
2022-11-12T14:41:09.807Z,14.18
2022-11-12T14:44:11.996Z,14.21
2022-11-12T14:47:00.342Z,14.23
2022-11-12T14:49:49.351Z,14.21
2022-11-12T14:52:41.140Z,14.21
2022-11-12T14:55:30.553Z,14.21
2022-11-12T14:58:18.991Z,14.23
2022-11-12T15:04:38.756Z,14.22
2022-11-12T15:07:30.296Z,14.23
2022-11-12T15:10:35.661Z,14.23
2022-11-12T15:13:25.049Z,14.23
2022-11-12T15:16:17.225Z,14.21
2022-11-12T15:19:16.884Z,14.22
2022-11-12T15:22:20.085Z,14.22
2022-11-12T15:25:15.859Z,14.21
2022-11-12T15:28:21.726Z,14.23
2022-11-12T15:31:19.547Z,14.23
2022-11-12T15:34:35.399Z,14.22
2022-11-12T15:37:25.456Z,14.21
2022-11-12T15:40:19.113Z,14.22
2022-11-12T15:43:14.082Z,14.22
2022-11-12T15:46:01.133Z,14.22
2022-11-12T15:48:52.960Z,14.20
2022-11-12T15:51:42.772Z,14.20
2022-11-12T15:54:29.915Z,14.20
2022-11-12T15:57:20.018Z,14.20
2022-11-12T16:00:14.961Z,14.20
2022-11-12T16:03:09.628Z,14.22
2022-11-12T16:05:56.876Z,14.21
2022-11-12T16:08:43.920Z,14.20
2022-11-12T16:11:37.278Z,14.21
2022-11-12T16:14:26.132Z,14.20
2022-11-12T16:17:15.558Z,14.20
2022-11-12T16:20:03.954Z,14.20
2022-11-12T16:22:53.749Z,14.22
2022-11-12T16:25:43.007Z,14.23
2022-11-12T16:28:30.397Z,14.21
2022-11-12T16:31:18.979Z,14.21
2022-11-12T16:34:06.263Z,14.20
2022-11-12T16:36:53.258Z,14.20
2022-11-12T16:39:40.234Z,14.21
2022-11-12T16:42:27.430Z,14.23
2022-11-12T16:45:15.778Z,14.22
2022-11-12T16:48:08.114Z,14.19
2022-11-12T16:50:55.259Z,14.21
2022-11-12T16:53:44.529Z,14.21
2022-11-12T16:56:32.072Z,14.22
2022-11-12T16:59:19.607Z,14.18
2022-11-12T17:02:12.016Z,14.18
2022-11-12T17:05:02.830Z,14.19
2022-11-12T17:07:50.236Z,14.20
2022-11-12T17:10:37.870Z,14.20
2022-11-12T17:13:25.347Z,14.19
2022-11-12T17:16:13.028Z,14.19
2022-11-12T17:19:01.401Z,14.19
2022-11-12T17:21:50.238Z,14.18
2022-11-12T17:24:38.253Z,14.19
2022-11-12T17:27:25.699Z,14.19
2022-11-12T17:30:14.095Z,14.20
2022-11-12T17:33:01.488Z,14.18
2022-11-12T17:35:48.603Z,14.16
2022-11-12T17:38:37.238Z,14.18
2022-11-12T17:41:25.231Z,14.20
2022-11-12T17:44:16.560Z,14.19
2022-11-12T17:47:04.277Z,14.18
2022-11-12T17:49:51.788Z,14.19
2022-11-12T17:52:38.910Z,14.18
2022-11-12T17:55:27.652Z,14.16
2022-11-12T17:58:14.983Z,14.18
2022-11-12T18:01:07.106Z,14.18
2022-11-12T18:03:56.435Z,14.16
2022-11-12T18:06:44.844Z,14.19
2022-11-12T18:09:33.098Z,14.19
2022-11-12T18:12:21.612Z,14.18
2022-11-12T18:15:10.263Z,14.18
2022-11-12T18:17:57.810Z,14.17
2022-11-12T18:20:45.617Z,14.18
2022-11-12T18:23:33.249Z,14.20
2022-11-12T18:26:23.552Z,14.19
2022-11-12T18:29:27.335Z,14.17
2022-11-12T18:32:15.379Z,14.18
2022-11-12T18:35:02.595Z,14.17
2022-11-12T18:37:51.884Z,14.18
2022-11-12T18:40:39.386Z,14.18
2022-11-12T18:43:26.953Z,14.17
2022-11-12T18:46:17.105Z,14.15
2022-11-12T18:49:05.946Z,14.16
2022-11-12T18:51:55.848Z,14.17
2022-11-12T18:54:44.850Z,14.16
2022-11-12T18:57:32.062Z,14.16
2022-11-12T19:00:19.910Z,14.17
2022-11-12T19:03:08.949Z,14.18
2022-11-12T19:05:59.038Z,14.15
2022-11-12T19:08:47.150Z,14.15
2022-11-12T19:11:34.268Z,14.16
2022-11-12T19:14:21.656Z,14.15
2022-11-12T19:17:11.982Z,14.13
2022-11-12T19:20:01.402Z,14.14
2022-11-12T19:22:48.666Z,14.15
2022-11-12T19:25:36.639Z,14.15
2022-11-12T19:28:24.091Z,14.13
2022-11-12T19:31:17.113Z,14.15
2022-11-12T19:34:04.786Z,14.15
2022-11-12T19:37:11.910Z,14.13
2022-11-12T19:40:01.024Z,14.12
2022-11-12T19:42:48.874Z,14.12
2022-11-12T19:45:36.616Z,14.13
2022-11-12T19:48:24.106Z,14.13
2022-11-12T19:51:12.767Z,14.14
2022-11-12T19:54:04.424Z,14.14
2022-11-12T19:56:51.812Z,14.13
2022-11-12T19:59:40.327Z,14.11
2022-11-12T20:02:27.779Z,14.13
2022-11-12T20:05:15.424Z,14.12
2022-11-12T20:08:02.620Z,14.11
2022-11-12T20:10:51.314Z,14.11
2022-11-12T20:13:39.353Z,14.11
2022-11-12T20:16:26.787Z,14.12
2022-11-12T20:19:13.988Z,14.10
2022-11-12T20:22:01.071Z,14.10
2022-11-12T20:24:48.454Z,14.11
2022-11-12T20:27:37.009Z,14.11
2022-11-12T20:30:24.164Z,14.08
2022-11-12T20:33:11.300Z,14.09
2022-11-12T20:36:04.416Z,14.11
2022-11-12T20:38:53.475Z,14.10
2022-11-12T20:41:40.968Z,14.08
2022-11-12T20:44:29.692Z,14.12
2022-11-12T20:47:16.767Z,14.09
2022-11-12T20:50:04.183Z,14.04
2022-11-12T20:52:51.471Z,14.08
2022-11-12T20:55:38.978Z,14.08
2022-11-12T20:58:28.010Z,14.07
2022-11-12T21:01:19.057Z,14.06
2022-11-12T21:04:06.431Z,14.05
2022-11-12T21:06:59.735Z,14.05
2022-11-12T21:09:51.380Z,14.06
2022-11-12T21:12:38.496Z,14.06
2022-11-12T21:15:25.665Z,14.05
2022-11-12T21:18:17.168Z,14.03
2022-11-12T21:21:06.477Z,14.05
2022-11-12T21:23:54.041Z,14.05
2022-11-12T21:26:41.194Z,14.05
2022-11-12T21:29:28.316Z,14.05
2022-11-12T21:32:16.261Z,14.04
2022-11-12T21:35:07.552Z,14.05
2022-11-12T21:37:55.222Z,14.04
2022-11-12T21:40:42.984Z,14.05
2022-11-12T21:43:30.130Z,14.04
2022-11-12T21:46:19.017Z,14.05
2022-11-12T21:49:06.317Z,14.05
2022-11-12T21:51:55.129Z,14.05
2022-11-12T21:54:43.141Z,14.04
2022-11-12T21:57:30.674Z,14.03
2022-11-12T22:00:40.950Z,14.05
2022-11-12T22:03:25.907Z,14.04
2022-11-12T22:06:13.769Z,14.04
2022-11-12T22:09:02.298Z,14.04
2022-11-12T22:11:50.035Z,14.02
2022-11-12T22:14:37.128Z,13.97
2022-11-12T22:17:24.222Z,14.03
2022-11-12T22:20:12.573Z,14.06
2022-11-12T22:23:01.680Z,14.03
2022-11-12T22:25:54.301Z,14.03
2022-11-12T22:28:41.494Z,14.04
2022-11-12T22:31:31.141Z,14.05
2022-11-12T22:34:20.063Z,14.01
2022-11-12T22:37:07.403Z,14.02
2022-11-12T22:39:54.927Z,14.04
2022-11-12T22:42:43.238Z,14.02
2022-11-12T22:45:30.686Z,14.03
2022-11-12T22:48:17.878Z,14.02
2022-11-12T22:51:07.583Z,14.02
2022-11-12T22:53:55.425Z,14.01
2022-11-12T22:56:42.780Z,14.00
2022-11-12T22:59:31.212Z,13.99
2022-11-12T23:02:18.431Z,13.99
2022-11-12T23:05:06.331Z,14.00
2022-11-12T23:07:53.286Z,14.00
2022-11-12T23:10:45.580Z,14.03
2022-11-12T23:13:33.927Z,13.98
2022-11-12T23:16:24.118Z,14.02
2022-11-12T23:19:11.253Z,14.01
2022-11-12T23:21:58.248Z,14.01
2022-11-12T23:24:46.268Z,14.01
2022-11-12T23:27:33.402Z,13.99
2022-11-12T23:30:20.839Z,13.99
2022-11-12T23:33:10.180Z,14.00
2022-11-12T23:36:04.707Z,13.99
2022-11-12T23:38:52.230Z,14.00
2022-11-12T23:41:39.664Z,14.00
2022-11-12T23:44:26.658Z,13.99
2022-11-12T23:47:14.141Z,13.98
2022-11-12T23:50:02.737Z,13.98
2022-11-12T23:52:49.787Z,13.99
2022-11-12T23:55:38.639Z,13.99
2022-11-12T23:58:26.326Z,13.97
